createdAt,value
2022-12-03T00:01:37.949Z,-0.60
2022-12-03T00:04:06.021Z,-0.60
2022-12-03T00:06:34.891Z,-0.60
2022-12-03T00:09:03.143Z,-0.60
2022-12-03T00:11:31.141Z,-0.60
2022-12-03T00:13:59.913Z,-0.60
2022-12-03T00:16:27.555Z,-0.60
2022-12-03T00:18:55.675Z,-0.60
2022-12-03T00:21:24.755Z,-0.60
2022-12-03T00:23:52.519Z,-0.60
2022-12-03T00:26:20.171Z,-0.60
2022-12-03T00:28:49.675Z,-0.60
2022-12-03T00:31:17.800Z,-0.60
2022-12-03T00:33:45.918Z,-0.60
2022-12-03T00:36:13.789Z,-0.60
2022-12-03T00:38:41.766Z,-0.60
2022-12-03T00:41:09.622Z,-0.60
2022-12-03T00:43:37.666Z,-0.70
2022-12-03T00:46:05.706Z,-0.70
2022-12-03T00:48:36.207Z,-0.60
2022-12-03T00:51:04.235Z,-0.60
2022-12-03T00:53:32.343Z,-0.60
2022-12-03T00:56:02.052Z,-0.50
2022-12-03T00:58:29.586Z,-0.50
2022-12-03T01:00:57.346Z,-0.70
2022-12-03T01:03:25.103Z,-0.80
2022-12-03T01:05:55.800Z,-0.80
2022-12-03T01:08:23.355Z,-0.80
2022-12-03T01:10:50.958Z,-0.80
2022-12-03T01:13:18.616Z,-0.80
2022-12-03T01:15:46.206Z,-0.70
2022-12-03T01:18:16.356Z,-0.70
2022-12-03T01:20:44.011Z,-0.60
2022-12-03T01:23:14.091Z,-0.60
2022-12-03T01:25:41.647Z,-0.60
2022-12-03T01:28:09.285Z,-0.60
2022-12-03T01:30:56.988Z,-0.60
2022-12-03T01:33:24.685Z,-0.70
2022-12-03T01:35:54.280Z,-0.70
2022-12-03T01:38:21.740Z,-0.70
2022-12-03T01:40:50.132Z,-0.70
2022-12-03T01:43:21.589Z,-0.80
2022-12-03T01:45:49.432Z,-0.80
2022-12-03T01:48:17.321Z,-0.80
2022-12-03T01:50:45.576Z,-0.80
2022-12-03T01:53:18.384Z,-0.90
2022-12-03T01:55:49.355Z,-0.80
2022-12-03T01:58:25.784Z,-0.80
2022-12-03T02:00:53.428Z,-0.80
2022-12-03T02:03:26.195Z,-0.70
2022-12-03T02:05:53.764Z,-0.70
2022-12-03T02:08:36.536Z,-0.80
2022-12-03T02:11:25.707Z,-0.70
2022-12-03T02:13:59.549Z,-0.70
2022-12-03T02:16:27.288Z,-0.70
2022-12-03T02:18:55.197Z,-0.70
2022-12-03T02:21:37.689Z,-0.70
2022-12-03T02:24:34.929Z,-0.70
2022-12-03T02:27:02.510Z,-0.60
2022-12-03T02:29:30.673Z,-0.60
2022-12-03T02:31:58.484Z,-0.60
2022-12-03T02:34:41.056Z,-0.70
2022-12-03T02:37:13.613Z,-0.70
2022-12-03T02:39:44.570Z,-0.70
2022-12-03T02:42:31.282Z,-0.80
2022-12-03T02:45:05.122Z,-0.80
2022-12-03T02:47:36.759Z,-0.80
2022-12-03T02:50:05.818Z,-0.80
2022-12-03T02:52:52.637Z,-0.80
2022-12-03T02:55:20.357Z,-0.90
2022-12-03T02:57:52.170Z,-0.90
2022-12-03T03:00:20.553Z,-0.90
2022-12-03T03:02:48.105Z,-0.90
2022-12-03T03:05:17.130Z,-0.80
2022-12-03T03:07:44.977Z,-0.80
2022-12-03T03:10:15.830Z,-0.70
2022-12-03T03:12:44.154Z,-0.70
2022-12-03T03:15:12.733Z,-0.70
2022-12-03T03:17:41.145Z,-0.70
2022-12-03T03:20:11.029Z,-0.70
2022-12-03T03:22:41.769Z,-0.80
2022-12-03T03:25:12.294Z,-0.70
2022-12-03T03:27:42.166Z,-0.70
2022-12-03T03:30:11.201Z,-0.70
2022-12-03T03:32:39.466Z,-0.70
2022-12-03T03:35:11.243Z,-0.70
2022-12-03T03:37:39.514Z,-0.70
2022-12-03T03:40:09.714Z,-0.70
2022-12-03T03:42:40.962Z,-0.70
2022-12-03T03:45:09.954Z,-0.70
2022-12-03T03:47:37.691Z,-0.70
2022-12-03T03:50:06.607Z,-0.70
2022-12-03T03:52:37.404Z,-0.70
2022-12-03T03:55:07.155Z,-0.70
2022-12-03T03:57:35.051Z,-0.60
2022-12-03T04:00:07.194Z,-0.60
2022-12-03T04:02:36.621Z,-0.60
2022-12-03T04:05:04.758Z,-0.60
2022-12-03T04:07:32.407Z,-0.60
2022-12-03T04:10:00.052Z,-0.60
2022-12-03T04:12:46.585Z,-0.60
2022-12-03T04:15:14.147Z,-0.70
2022-12-03T04:17:41.805Z,-0.70
2022-12-03T04:20:10.083Z,-0.70
2022-12-03T04:22:40.311Z,-0.70
2022-12-03T04:25:28.526Z,-0.60
2022-12-03T04:28:14.673Z,-0.60
2022-12-03T04:30:42.547Z,-0.50
2022-12-03T04:33:28.980Z,-0.50
2022-12-03T04:35:56.586Z,-0.50
2022-12-03T04:38:26.028Z,-0.50
2022-12-03T04:41:04.376Z,-0.50
2022-12-03T04:43:34.618Z,-0.50
2022-12-03T04:46:02.462Z,-0.50
2022-12-03T04:48:30.561Z,-0.50
2022-12-03T04:50:58.163Z,-0.50
2022-12-03T04:53:25.649Z,-0.40
2022-12-03T04:55:55.991Z,-0.50
2022-12-03T04:58:23.496Z,-0.50
2022-12-03T05:00:52.109Z,-0.40
2022-12-03T05:03:19.741Z,-0.50
2022-12-03T05:05:47.964Z,-0.50
2022-12-03T05:08:15.604Z,-0.40
2022-12-03T05:10:43.677Z,-0.50
2022-12-03T05:13:11.211Z,-0.50
2022-12-03T05:15:38.897Z,-0.60
2022-12-03T05:18:06.559Z,-0.60
2022-12-03T05:20:45.871Z,-0.60
2022-12-03T05:23:18.981Z,-0.60
2022-12-03T05:25:48.688Z,-0.60
2022-12-03T05:28:18.804Z,-0.60
2022-12-03T05:30:46.405Z,-0.60
2022-12-03T05:33:13.992Z,-0.60
2022-12-03T05:35:41.693Z,-0.60
2022-12-03T05:38:09.113Z,-0.60
2022-12-03T05:40:37.660Z,-0.50
2022-12-03T05:43:08.732Z,-0.50
2022-12-03T05:45:39.606Z,-0.50
2022-12-03T05:48:10.349Z,-0.50
2022-12-03T05:50:40.213Z,-0.40
2022-12-03T05:53:17.449Z,-0.50
2022-12-03T05:55:45.205Z,-0.50
2022-12-03T05:58:13.131Z,-0.50
2022-12-03T06:00:43.022Z,-0.50
2022-12-03T06:03:11.385Z,-0.50
2022-12-03T06:05:39.321Z,-0.60
2022-12-03T06:08:06.813Z,-0.50
2022-12-03T06:10:34.467Z,-0.60
2022-12-03T06:13:06.021Z,-0.60
2022-12-03T06:15:36.314Z,-0.60
2022-12-03T06:18:07.838Z,-0.60
2022-12-03T06:20:35.385Z,-0.60
2022-12-03T06:23:03.965Z,-0.50
2022-12-03T06:25:31.438Z,-0.60
2022-12-03T06:27:59.026Z,-0.60
2022-12-03T06:30:26.610Z,-0.60
2022-12-03T06:32:54.649Z,-0.60
2022-12-03T06:35:22.276Z,-0.60
2022-12-03T06:37:49.846Z,-0.60
2022-12-03T06:40:17.426Z,-0.60
2022-12-03T06:42:52.428Z,-0.60
2022-12-03T06:45:19.997Z,-0.60
2022-12-03T06:47:47.372Z,-0.60
2022-12-03T06:50:15.054Z,-0.60
2022-12-03T06:52:42.587Z,-0.50
2022-12-03T06:55:10.163Z,-0.50
2022-12-03T06:57:38.087Z,-0.50
2022-12-03T07:00:06.576Z,-0.50
2022-12-03T07:02:34.219Z,-0.50
2022-12-03T07:05:01.815Z,-0.50
2022-12-03T07:07:29.317Z,-0.50
2022-12-03T07:09:56.844Z,-0.60
2022-12-03T07:12:24.763Z,-0.60
2022-12-03T07:14:52.655Z,-0.60
2022-12-03T07:17:20.325Z,-0.60
2022-12-03T07:19:47.860Z,-0.50
2022-12-03T07:22:18.510Z,-0.60
2022-12-03T07:24:46.102Z,-0.50
2022-12-03T07:27:13.495Z,-0.50
2022-12-03T07:29:40.963Z,-0.40
2022-12-03T07:32:08.435Z,-0.40
2022-12-03T07:34:35.935Z,-0.40
2022-12-03T07:37:04.915Z,-0.40
2022-12-03T07:39:32.456Z,-0.40
2022-12-03T07:42:00.153Z,-0.40
2022-12-03T07:44:28.390Z,-0.40
2022-12-03T07:46:56.205Z,-0.40
2022-12-03T07:49:24.236Z,-0.40
2022-12-03T07:51:54.538Z,-0.40
2022-12-03T07:54:22.843Z,-0.30
2022-12-03T07:56:50.804Z,-0.30
2022-12-03T07:59:18.929Z,-0.30
2022-12-03T08:01:46.763Z,-0.30
2022-12-03T08:04:15.011Z,-0.30
2022-12-03T08:06:42.569Z,-0.20
2022-12-03T08:09:15.781Z,-0.30
2022-12-03T08:11:49.473Z,-0.30
2022-12-03T08:14:19.266Z,-0.30
2022-12-03T08:16:47.887Z,-0.30
2022-12-03T08:19:18.743Z,-0.30
2022-12-03T08:21:46.619Z,-0.30
2022-12-03T08:24:17.354Z,-0.30
2022-12-03T08:26:47.189Z,-0.30
2022-12-03T08:29:18.434Z,-0.30
2022-12-03T08:31:57.553Z,-0.20
2022-12-03T08:34:28.822Z,-0.20
2022-12-03T08:37:05.806Z,-0.20
2022-12-03T08:39:37.823Z,-0.20
2022-12-03T08:42:26.945Z,-0.20
2022-12-03T08:44:55.612Z,-0.20
2022-12-03T08:47:24.894Z,-0.30
2022-12-03T08:50:38.834Z,-0.30
2022-12-03T08:53:36.244Z,-0.30
2022-12-03T08:56:23.905Z,-0.30
2022-12-03T08:58:57.741Z,-0.30
2022-12-03T09:01:29.361Z,-0.30
2022-12-03T09:04:05.899Z,-0.20
2022-12-03T09:06:33.620Z,-0.20
2022-12-03T09:09:06.332Z,-0.20
2022-12-03T09:11:36.724Z,-0.20
2022-12-03T09:14:05.788Z,-0.20
2022-12-03T09:16:33.791Z,-0.20
2022-12-03T09:19:01.826Z,-0.20
2022-12-03T09:21:29.283Z,-0.10
2022-12-03T09:23:57.923Z,-0.10
2022-12-03T09:26:27.111Z,-0.10
2022-12-03T09:28:54.895Z,-0.20
2022-12-03T09:31:22.626Z,-0.10
2022-12-03T09:33:50.423Z,-0.10
2022-12-03T09:36:18.270Z,-0.10
2022-12-03T09:38:47.910Z,-0.10
2022-12-03T09:41:17.639Z,-0.10
2022-12-03T09:46:38.017Z,-0.10
2022-12-03T09:49:15.501Z,0.00
2022-12-03T09:51:45.310Z,0.00
2022-12-03T09:54:23.301Z,0.00
2022-12-03T09:56:51.247Z,0.00
2022-12-03T09:59:19.111Z,0.00
2022-12-03T10:01:46.707Z,0.10
2022-12-03T10:04:14.652Z,0.00
2022-12-03T10:06:45.800Z,0.00
2022-12-03T10:09:17.694Z,0.10
2022-12-03T10:11:45.678Z,0.10
2022-12-03T10:14:17.127Z,0.10
2022-12-03T10:16:45.295Z,0.20
2022-12-03T10:19:40.084Z,0.20
2022-12-03T10:22:07.633Z,0.20
2022-12-03T10:24:37.103Z,0.20
2022-12-03T10:27:21.651Z,0.10
2022-12-03T10:29:57.326Z,0.10
2022-12-03T10:32:43.389Z,0.10
2022-12-03T10:35:20.884Z,0.10
2022-12-03T10:38:06.335Z,0.10
2022-12-03T10:40:36.920Z,0.10
2022-12-03T10:43:19.977Z,0.10
2022-12-03T10:46:04.411Z,0.10
2022-12-03T10:48:32.301Z,0.10
2022-12-03T10:51:18.423Z,0.10
2022-12-03T10:53:46.024Z,0.10
2022-12-03T10:56:26.475Z,0.10
2022-12-03T10:58:54.459Z,0.10
2022-12-03T11:01:25.464Z,0.10
2022-12-03T11:03:57.047Z,0.10
2022-12-03T11:06:25.212Z,0.10
2022-12-03T11:09:01.427Z,0.10
2022-12-03T11:11:32.084Z,0.10
2022-12-03T11:14:04.851Z,0.10
2022-12-03T11:16:41.438Z,0.20
2022-12-03T11:19:39.457Z,0.20
2022-12-03T11:22:09.741Z,0.30
2022-12-03T11:24:39.686Z,0.30
2022-12-03T11:27:16.006Z,0.30
2022-12-03T11:29:46.489Z,0.30
2022-12-03T11:32:54.558Z,0.20
2022-12-03T11:35:26.043Z,0.20
2022-12-03T11:37:53.747Z,0.20
2022-12-03T11:40:24.379Z,0.30
2022-12-03T11:42:52.354Z,0.30
2022-12-03T11:45:30.997Z,0.20
2022-12-03T11:47:59.204Z,0.20
2022-12-03T11:50:37.623Z,0.20
2022-12-03T11:53:10.938Z,0.20
2022-12-03T11:55:47.207Z,0.20
2022-12-03T11:58:28.073Z,0.20
2022-12-03T12:01:01.019Z,0.20
2022-12-03T12:03:35.268Z,0.30
2022-12-03T12:06:03.536Z,0.20
2022-12-03T12:08:35.706Z,0.20
2022-12-03T12:11:04.131Z,0.20
2022-12-03T12:13:31.954Z,0.20
2022-12-03T12:16:05.249Z,0.10
2022-12-03T12:18:52.395Z,0.10
2022-12-03T12:21:43.196Z,0.10
2022-12-03T12:24:40.483Z,0.10
2022-12-03T12:27:12.114Z,0.10
2022-12-03T12:29:43.268Z,0.10
2022-12-03T12:32:10.903Z,0.10
2022-12-03T12:34:46.847Z,0.10
2022-12-03T12:37:47.593Z,0.10
2022-12-03T12:40:17.862Z,0.10
2022-12-03T12:42:52.792Z,0.10
2022-12-03T12:45:23.531Z,0.20
2022-12-03T12:48:09.962Z,0.10
2022-12-03T12:50:39.631Z,0.00
2022-12-03T12:53:28.008Z,0.10
2022-12-03T12:56:24.832Z,0.00
2022-12-03T12:58:53.353Z,0.00
2022-12-03T13:01:32.178Z,-0.10
2022-12-03T13:03:59.968Z,0.00
2022-12-03T13:06:30.141Z,0.00
2022-12-03T13:09:01.155Z,0.00
2022-12-03T13:11:42.332Z,0.00
2022-12-03T13:14:18.844Z,-0.10
2022-12-03T13:16:48.244Z,-0.10
2022-12-03T13:19:43.327Z,-0.10
2022-12-03T13:22:25.752Z,-0.10
2022-12-03T13:24:59.477Z,-0.10
2022-12-03T13:27:30.326Z,-0.10
2022-12-03T13:30:07.112Z,-0.10
2022-12-03T13:32:37.584Z,-0.10
2022-12-03T13:35:31.832Z,-0.10
2022-12-03T13:37:59.941Z,-0.20
2022-12-03T13:40:36.112Z,-0.20
2022-12-03T13:43:16.428Z,-0.20
2022-12-03T13:45:46.574Z,-0.20
2022-12-03T13:48:28.784Z,-0.20
2022-12-03T13:51:00.532Z,-0.20
2022-12-03T13:53:34.713Z,-0.20
2022-12-03T13:56:32.850Z,-0.20
2022-12-03T13:59:01.856Z,-0.20
2022-12-03T14:01:32.461Z,-0.20
2022-12-03T14:04:00.172Z,-0.20
2022-12-03T14:06:27.786Z,-0.30
2022-12-03T14:08:55.532Z,-0.30
2022-12-03T14:11:42.177Z,-0.30
2022-12-03T14:14:12.875Z,-0.30
2022-12-03T14:16:40.433Z,-0.30
2022-12-03T14:19:08.153Z,-0.20
2022-12-03T14:21:36.428Z,-0.30
2022-12-03T14:24:04.455Z,-0.20
2022-12-03T14:26:34.044Z,-0.20
2022-12-03T14:29:05.855Z,-0.30
2022-12-03T14:31:36.360Z,-0.30
2022-12-03T14:34:07.021Z,-0.30
2022-12-03T14:36:34.742Z,-0.30
2022-12-03T14:39:02.275Z,-0.40
2022-12-03T14:41:53.282Z,-0.40
2022-12-03T14:44:23.925Z,-0.40
2022-12-03T14:46:55.476Z,-0.30
2022-12-03T14:49:25.038Z,-0.30
2022-12-03T14:51:53.659Z,-0.20
2022-12-03T14:54:21.278Z,-0.20
2022-12-03T14:56:49.098Z,-0.30
2022-12-03T14:59:16.810Z,-0.30
2022-12-03T15:01:44.383Z,-0.40
2022-12-03T15:04:11.926Z,-0.40
2022-12-03T15:06:39.822Z,-0.40
2022-12-03T15:09:07.555Z,-0.40
2022-12-03T15:11:35.351Z,-0.40
2022-12-03T15:14:09.683Z,-0.50
2022-12-03T15:16:37.910Z,-0.50
2022-12-03T15:19:05.610Z,-0.50
2022-12-03T15:21:34.939Z,-0.50
2022-12-03T15:24:03.300Z,-0.50
2022-12-03T15:26:31.363Z,-0.50
2022-12-03T15:29:01.583Z,-0.50
2022-12-03T15:31:29.209Z,-0.60
2022-12-03T15:33:56.995Z,-0.60
2022-12-03T15:36:24.567Z,-0.60
2022-12-03T15:38:52.539Z,-0.60
2022-12-03T15:41:29.229Z,-0.60
2022-12-03T15:44:02.119Z,-0.70
2022-12-03T15:46:31.520Z,-0.70
2022-12-03T15:48:59.263Z,-0.70
2022-12-03T15:51:27.132Z,-0.70
2022-12-03T15:53:54.688Z,-0.80
2022-12-03T15:56:22.335Z,-0.80
2022-12-03T15:58:50.000Z,-0.80
2022-12-03T16:01:21.297Z,-0.70
2022-12-03T16:03:48.812Z,-0.80
2022-12-03T16:06:18.231Z,-0.80
2022-12-03T16:08:46.063Z,-0.80
2022-12-03T16:11:14.951Z,-0.80
2022-12-03T16:13:42.536Z,-0.80
2022-12-03T16:16:10.802Z,-0.80
2022-12-03T16:18:38.464Z,-0.80
2022-12-03T16:21:06.483Z,-0.80
2022-12-03T16:23:34.116Z,-0.80
2022-12-03T16:26:02.160Z,-0.80
2022-12-03T16:28:30.114Z,-0.80
2022-12-03T16:31:00.605Z,-0.70
2022-12-03T16:33:28.323Z,-0.80
2022-12-03T16:35:55.979Z,-0.70
2022-12-03T16:38:24.949Z,-0.70
2022-12-03T16:40:52.620Z,-0.70
2022-12-03T16:43:23.578Z,-0.70
2022-12-03T16:46:20.140Z,-0.70
2022-12-03T16:48:49.405Z,-0.70
2022-12-03T16:51:19.538Z,-0.70
2022-12-03T16:53:48.207Z,-0.70
2022-12-03T16:56:15.777Z,-0.70
2022-12-03T16:58:44.873Z,-0.70
2022-12-03T17:01:13.066Z,-0.70
2022-12-03T17:03:40.798Z,-0.70
2022-12-03T17:06:08.614Z,-0.70
2022-12-03T17:08:36.213Z,-0.70
2022-12-03T17:11:04.038Z,-0.70
2022-12-03T17:13:33.502Z,-0.70
2022-12-03T17:16:09.395Z,-0.70
2022-12-03T17:18:37.110Z,-0.70
2022-12-03T17:21:05.058Z,-0.70
2022-12-03T17:23:34.066Z,-0.70
2022-12-03T17:26:02.250Z,-0.70
2022-12-03T17:28:29.929Z,-0.70
2022-12-03T17:30:57.675Z,-0.70
2022-12-03T17:33:28.706Z,-0.70
2022-12-03T17:35:56.416Z,-0.70
2022-12-03T17:38:24.120Z,-0.70
2022-12-03T17:40:51.779Z,-0.70
2022-12-03T17:43:22.707Z,-0.70
2022-12-03T17:45:50.274Z,-0.70
2022-12-03T17:48:18.046Z,-0.70
2022-12-03T17:50:46.125Z,-0.70
2022-12-03T17:53:13.674Z,-0.70
2022-12-03T17:55:45.034Z,-0.80
2022-12-03T17:58:13.394Z,-0.70
2022-12-03T18:00:41.582Z,-0.70
2022-12-03T18:03:09.640Z,-0.70
2022-12-03T18:05:37.497Z,-0.70
2022-12-03T18:08:06.750Z,-0.70
2022-12-03T18:10:34.995Z,-0.70
2022-12-03T18:13:02.935Z,-0.70
2022-12-03T18:15:31.954Z,-0.70
2022-12-03T18:18:00.515Z,-0.70
2022-12-03T18:20:28.389Z,-0.70
2022-12-03T18:22:57.496Z,-0.60
2022-12-03T18:25:26.495Z,-0.60
2022-12-03T18:27:54.123Z,-0.60
2022-12-03T18:30:22.602Z,-0.60
2022-12-03T18:32:50.684Z,-0.60
2022-12-03T18:35:18.432Z,-0.60
2022-12-03T18:37:46.195Z,-0.60
2022-12-03T18:40:27.242Z,-0.70
2022-12-03T18:42:57.815Z,-0.60
2022-12-03T18:45:25.571Z,-0.70
2022-12-03T18:47:57.090Z,-0.60
2022-12-03T18:50:24.809Z,-0.60
2022-12-03T18:52:52.447Z,-0.60
2022-12-03T18:55:21.890Z,-0.60
2022-12-03T18:57:49.606Z,-0.60
2022-12-03T19:00:18.025Z,-0.60
2022-12-03T19:03:03.486Z,-0.60
2022-12-03T19:05:35.771Z,-0.60
2022-12-03T19:08:12.734Z,-0.60
2022-12-03T19:10:42.153Z,-0.60
2022-12-03T19:13:13.772Z,-0.60
2022-12-03T19:15:41.211Z,-0.60
2022-12-03T19:18:08.981Z,-0.60
2022-12-03T19:20:40.353Z,-0.50
2022-12-03T19:23:08.334Z,-0.50
2022-12-03T19:25:36.536Z,-0.50
2022-12-03T19:28:04.564Z,-0.50
2022-12-03T19:30:32.613Z,-0.50
2022-12-03T19:33:00.168Z,-0.50
2022-12-03T19:35:29.572Z,-0.50
2022-12-03T19:37:58.472Z,-0.50
2022-12-03T19:40:26.232Z,-0.50
2022-12-03T19:42:54.409Z,-0.50
2022-12-03T19:45:21.869Z,-0.50
2022-12-03T19:47:49.429Z,-0.50
2022-12-03T19:50:22.674Z,-0.50
2022-12-03T19:52:51.287Z,-0.50
2022-12-03T19:55:22.221Z,-0.40
2022-12-03T19:57:49.798Z,-0.40
2022-12-03T20:00:17.715Z,-0.30
2022-12-03T20:02:47.933Z,-0.40
2022-12-03T20:05:15.525Z,-0.40
2022-12-03T20:07:58.810Z,-0.50
2022-12-03T20:10:26.313Z,-0.40
2022-12-03T20:12:53.789Z,-0.40
2022-12-03T20:15:21.325Z,-0.40
2022-12-03T20:17:48.822Z,-0.40
2022-12-03T20:20:16.447Z,-0.50
2022-12-03T20:22:44.114Z,-0.50
2022-12-03T20:25:11.918Z,-0.50
2022-12-03T20:27:42.822Z,-0.40
2022-12-03T20:30:11.638Z,-0.40
2022-12-03T20:32:45.135Z,-0.40
2022-12-03T20:35:13.269Z,-0.40
2022-12-03T20:37:41.186Z,-0.40
2022-12-03T20:40:09.222Z,-0.40
2022-12-03T20:42:36.724Z,-0.40
2022-12-03T20:45:04.759Z,-0.40
2022-12-03T20:47:32.690Z,-0.40
2022-12-03T20:50:00.187Z,-0.40
2022-12-03T20:52:27.838Z,-0.40
2022-12-03T20:54:55.294Z,-0.40
2022-12-03T20:57:23.650Z,-0.40
2022-12-03T20:59:56.976Z,-0.40
2022-12-03T21:02:24.678Z,-0.40
2022-12-03T21:04:53.614Z,-0.40
2022-12-03T21:07:21.682Z,-0.50
2022-12-03T21:09:49.555Z,-0.50
2022-12-03T21:12:27.531Z,-0.50
2022-12-03T21:14:58.077Z,-0.50
2022-12-03T21:17:25.887Z,-0.50
2022-12-03T21:19:55.017Z,-0.50
2022-12-03T21:22:22.699Z,-0.50
2022-12-03T21:24:50.372Z,-0.50
2022-12-03T21:27:21.651Z,-0.50
2022-12-03T21:29:58.971Z,-0.50
2022-12-03T21:32:26.632Z,-0.50
2022-12-03T21:34:57.215Z,-0.50
2022-12-03T21:37:24.824Z,-0.50
2022-12-03T21:39:52.911Z,-0.50
2022-12-03T21:42:34.719Z,-0.50
2022-12-03T21:45:05.196Z,-0.50
2022-12-03T21:47:37.235Z,-0.50
2022-12-03T21:50:09.821Z,-0.50
2022-12-03T21:52:37.444Z,-0.50
2022-12-03T21:55:06.412Z,-0.50
2022-12-03T21:57:37.734Z,-0.50
2022-12-03T22:00:08.380Z,-0.40
2022-12-03T22:02:40.224Z,-0.40
2022-12-03T22:05:10.197Z,-0.50
2022-12-03T22:07:39.436Z,-0.60
2022-12-03T22:10:09.368Z,-0.60
2022-12-03T22:12:37.470Z,-0.60
2022-12-03T22:15:05.729Z,-0.60
2022-12-03T22:17:36.268Z,-0.80
2022-12-03T22:20:06.156Z,-0.60
2022-12-03T22:22:33.798Z,-0.70
2022-12-03T22:25:02.021Z,-0.70
2022-12-03T22:27:30.285Z,-0.70
2022-12-03T22:30:00.461Z,-0.60
2022-12-03T22:32:29.013Z,-0.60
2022-12-03T22:34:56.625Z,-0.70
2022-12-03T22:37:24.314Z,-0.70
2022-12-03T22:39:54.671Z,-0.70
2022-12-03T22:42:22.392Z,-0.70
2022-12-03T22:44:49.975Z,-0.70
2022-12-03T22:47:17.961Z,-0.70
2022-12-03T22:49:45.477Z,-0.70
2022-12-03T22:52:13.058Z,-0.60
2022-12-03T22:54:45.609Z,-0.70
2022-12-03T22:57:13.153Z,-0.70
2022-12-03T22:59:41.542Z,-0.60
2022-12-03T23:02:10.483Z,-0.60
2022-12-03T23:04:38.326Z,-0.60
2022-12-03T23:07:08.099Z,-0.60
2022-12-03T23:09:35.517Z,-0.60
2022-12-03T23:12:10.118Z,-0.60
2022-12-03T23:14:37.646Z,-0.60
2022-12-03T23:17:05.186Z,-0.60
2022-12-03T23:19:32.642Z,-0.60
2022-12-03T23:22:00.238Z,-0.60
2022-12-03T23:24:28.834Z,-0.60
2022-12-03T23:26:56.886Z,-0.60
2022-12-03T23:29:25.011Z,-0.60
2022-12-03T23:31:53.039Z,-0.60
2022-12-03T23:34:20.733Z,-0.60
2022-12-03T23:36:48.576Z,-0.60
2022-12-03T23:39:16.498Z,-0.60
2022-12-03T23:41:44.491Z,-0.60
2022-12-03T23:44:12.535Z,-0.60
2022-12-03T23:46:40.493Z,-0.60
2022-12-03T23:49:08.635Z,-0.60
2022-12-03T23:51:36.551Z,-0.60
2022-12-03T23:54:04.218Z,-0.60
2022-12-03T23:56:31.878Z,-0.60
2022-12-03T23:59:02.815Z,-0.60
